Time;durP1;ratioP1;P1;durP2;ratioP2;P2;SDS_P1;SDS_P2;PMS_P1;PMS_P2;Temp;Humidity;BMP_temperature;BMP_pressure;BME280_temperature;BME280_humidity;BME280_pressure;Samples;Min_cycle;Max_cycle;Signal;HPM_P1;HPM_P2
2022/10/31 00:01:02;;;;;;;10.10;2.53;;;;;;;15.01;45.32;94416.25;5062877;28;20025;-82
2022/10/31 00:03:27;;;;;;;6.95;2.40;;;;;;;14.97;45.73;94419.91;5063583;28;20047;-82
2022/10/31 00:05:53;;;;;;;5.93;2.25;;;;;;;14.93;45.93;94408.28;5063462;28;20096;-82
2022/10/31 00:08:19;;;;;;;5.80;2.42;;;;;;;14.90;46.03;94409.72;5063604;28;20028;-82
2022/10/31 00:10:45;;;;;;;8.32;2.47;;;;;;;14.90;46.02;94406.22;5063407;28;20028;-82
2022/10/31 00:13:12;;;;;;;7.53;2.47;;;;;;;14.91;45.96;94403.22;5063584;28;20020;-83
2022/10/31 00:15:38;;;;;;;6.45;2.40;;;;;;;14.91;45.95;94403.22;5063424;28;20029;-82
2022/10/31 00:18:04;;;;;;;6.07;2.50;;;;;;;14.83;46.46;94396.00;5063353;28;20032;-83
2022/10/31 00:20:30;;;;;;;6.47;2.65;;;;;;;14.84;46.52;94394.91;5063424;28;20035;-83
2022/10/31 00:23:02;;;;;;;10.30;2.88;;;;;;;14.84;46.44;94401.06;5063097;28;20329;-84
2022/10/31 00:25:29;;;;;;;9.35;2.45;;;;;;;14.83;46.44;94402.16;5063120;28;20021;-84
2022/10/31 00:27:54;;;;;;;7.82;2.50;;;;;;;14.80;46.43;94410.09;5063046;28;20036;-82
2022/10/31 00:30:20;;;;;;;5.57;3.38;;;;;;;14.71;46.78;94407.44;5063198;28;20323;-81
2022/10/31 00:32:45;;;;;;;8.90;3.30;;;;;;;14.59;47.27;94396.63;5063281;28;20112;-82
2022/10/31 00:35:11;;;;;;;8.60;2.45;;;;;;;14.58;47.56;94400.44;5063118;28;20250;-82
2022/10/31 00:37:36;;;;;;;4.15;2.45;;;;;;;14.55;47.43;94395.69;5063028;28;20365;-82
2022/10/31 00:40:02;;;;;;;9.27;2.80;;;;;;;14.46;47.97;94387.69;5063127;28;20249;-82
2022/10/31 00:42:27;;;;;;;8.25;2.30;;;;;;;14.43;47.89;94399.06;5063268;28;20021;-82
2022/10/31 00:44:53;;;;;;;6.53;2.40;;;;;;;14.44;47.98;94397.97;5062965;28;20334;-81
2022/10/31 00:47:18;;;;;;;6.07;2.40;;;;;;;14.44;47.92;94392.59;5062843;28;20067;-81
2022/10/31 00:49:44;;;;;;;7.72;2.72;;;;;;;14.46;48.12;94390.38;5062819;28;20095;-81
2022/10/31 00:52:09;;;;;;;9.27;2.28;;;;;;;14.47;47.98;94386.59;5062912;28;20052;-81
2022/10/31 00:54:35;;;;;;;6.65;2.70;;;;;;;14.55;48.13;94396.50;5062971;28;20025;-83
2022/10/31 00:57:00;;;;;;;9.57;2.30;;;;;;;14.59;47.82;94385.91;5063001;28;20032;-83
2022/10/31 00:59:26;;;;;;;6.97;2.22;;;;;;;14.68;47.67;94394.69;5062900;28;20025;-82
2022/10/31 01:01:51;;;;;;;6.38;2.53;;;;;;;14.73;47.63;94391.81;5062869;28;20096;-82
2022/10/31 01:04:16;;;;;;;7.78;2.53;;;;;;;14.80;47.32;94399.38;5062785;28;20070;-82
2022/10/31 01:06:42;;;;;;;11.25;2.95;;;;;;;14.85;47.29;94391.88;5062574;28;20027;-82
2022/10/31 01:09:07;;;;;;;7.13;2.08;;;;;;;14.86;47.40;94398.06;5062606;28;20208;-82
2022/10/31 01:11:33;;;;;;;5.60;2.50;;;;;;;14.82;47.46;94389.88;5062856;28;20021;-82
2022/10/31 01:13:58;;;;;;;7.03;2.35;;;;;;;14.83;47.55;94396.00;5062834;28;20021;-82
2022/10/31 01:16:26;;;;;;;7.78;2.25;;;;;;;14.80;47.70;94404.72;5062454;28;20025;-83
2022/10/31 01:18:52;;;;;;;11.68;2.88;;;;;;;14.84;47.54;94401.06;5062561;28;20044;-82
2022/10/31 01:21:20;;;;;;;4.57;2.13;;;;;;;14.83;47.62;94398.69;5062556;28;20024;-83
2022/10/31 01:23:46;;;;;;;8.55;2.90;;;;;;;14.87;47.77;94404.19;5062560;28;20021;-82
2022/10/31 01:26:13;;;;;;;7.68;2.88;;;;;;;14.83;48.16;94406.75;5062540;28;20092;-82
2022/10/31 01:29:03;;;;;;;7.63;2.97;;;;;;;14.76;48.35;94406.50;5062626;28;20055;-82
2022/10/31 01:31:32;;;;;;;11.88;3.10;;;;;;;14.76;48.44;94409.19;5062258;28;20215;-82
2022/10/31 01:33:58;;;;;;;11.00;3.30;;;;;;;14.77;48.54;94411.50;5062410;28;20114;-82
2022/10/31 01:36:27;;;;;;;5.80;2.92;;;;;;;14.82;48.45;94413.25;5066044;28;20017;-82
2022/10/31 01:38:55;;;;;;;7.35;2.70;;;;;;;14.85;48.45;94407.22;5066426;28;20112;-82
2022/10/31 01:41:24;;;;;;;11.13;2.75;;;;;;;14.87;48.32;94418.41;5066414;28;20028;-82
2022/10/31 01:43:57;;;;;;;6.47;2.75;;;;;;;14.88;48.20;94420.00;5066411;28;20025;-82
2022/10/31 01:46:32;;;;;;;11.45;2.70;;;;;;;14.88;48.40;94421.88;5066286;28;20029;-82
2022/10/31 01:49:02;;;;;;;6.07;3.00;;;;;;;14.86;48.28;94419.53;5066477;28;20310;-82
2022/10/31 01:51:33;;;;;;;11.80;3.03;;;;;;;14.89;48.42;94412.72;5066285;28;20017;-82
2022/10/31 01:54:04;;;;;;;7.65;3.17;;;;;;;14.83;48.48;94420.94;5066141;28;20315;-82
2022/10/31 01:56:31;;;;;;;10.10;3.53;;;;;;;14.83;48.44;94426.31;5066137;28;20019;-82
2022/10/31 01:58:59;;;;;;;10.52;2.88;;;;;;;14.84;48.75;94427.13;5066295;28;20044;-82
2022/10/31 02:01:25;;;;;;;7.45;3.20;;;;;;;14.92;48.53;94428.16;5066155;28;20509;-82
2022/10/31 02:03:51;;;;;;;7.55;2.97;;;;;;;14.86;48.65;94424.91;5065986;28;20023;-82
2022/10/31 02:06:26;;;;;;;7.28;3.28;;;;;;;14.86;48.47;94422.22;5065944;28;20337;-82
2022/10/31 02:08:52;;;;;;;7.50;2.65;;;;;;;14.87;48.77;94414.94;5066029;28;20035;-82
2022/10/31 02:11:17;;;;;;;8.05;3.10;;;;;;;14.88;48.76;94413.81;5065834;28;20016;-82
2022/10/31 02:13:43;;;;;;;6.40;3.10;;;;;;;14.82;49.01;94407.88;5065963;28;20319;-82
2022/10/31 02:16:09;;;;;;;10.75;3.08;;;;;;;14.84;49.12;94411.03;5065905;28;20037;-82
2022/10/31 02:18:34;;;;;;;7.65;3.03;;;;;;;14.82;49.28;94410.56;5066076;28;20223;-83
2022/10/31 02:21:07;;;;;;;6.28;2.80;;;;;;;14.78;49.45;94405.06;5065722;28;20017;-83
2022/10/31 02:23:45;;;;;;;7.53;2.88;;;;;;;14.75;49.60;94410.28;5065869;28;20319;-83
2022/10/31 02:26:20;;;;;;;9.75;3.40;;;;;;;14.70;49.50;94410.47;5065612;28;20040;-83
2022/10/31 02:29:04;;;;;;;5.72;2.60;;;;;;;14.68;49.45;94412.69;5065786;28;20060;-83
2022/10/31 02:32:07;;;;;;;8.20;2.88;;;;;;;14.59;49.75;94416.22;5065646;28;20267;-83
2022/10/31 02:34:44;;;;;;;10.35;2.80;;;;;;;14.55;49.92;94426.00;5065399;28;20039;-84
2022/10/31 02:37:12;;;;;;;9.70;3.88;;;;;;;14.51;49.78;94429.63;5065428;28;20024;-84
2022/10/31 02:39:53;;;;;;;13.15;3.63;;;;;;;14.37;50.61;94429.84;5065546;28;20036;-83
2022/10/31 02:42:21;;;;;;;8.25;3.40;;;;;;;14.33;50.74;94431.59;5065425;28;20283;-83
2022/10/31 02:45:26;;;;;;;11.23;3.28;;;;;;;14.23;50.96;94440.81;5065107;28;20066;-84
2022/10/31 02:47:55;;;;;;;12.43;3.90;;;;;;;14.18;51.33;94441.75;5064058;28;20024;-83
2022/10/31 02:50:33;;;;;;;9.20;3.72;;;;;;;14.14;51.87;94446.19;5065108;28;20086;-84
2022/10/31 02:52:58;;;;;;;15.32;4.53;;;;;;;14.10;52.04;94450.63;5065350;28;20028;-83
2022/10/31 02:55:27;;;;;;;8.30;3.55;;;;;;;14.07;52.25;94447.81;5065211;28;20048;-83
2022/10/31 02:57:56;;;;;;;10.50;3.67;;;;;;;14.04;52.48;94438.50;5064945;28;20176;-83
2022/10/31 03:00:22;;;;;;;9.20;3.90;;;;;;;13.97;52.77;94439.00;5065084;28;20147;-84
2022/10/31 03:02:57;;;;;;;8.85;3.38;;;;;;;13.99;52.86;94446.72;5064969;28;20020;-84
2022/10/31 03:05:55;;;;;;;9.50;3.67;;;;;;;13.95;53.02;94438.53;5064798;28;20108;-84
2022/10/31 03:08:54;;;;;;;7.88;3.80;;;;;;;13.90;52.89;94446.75;5065052;28;20021;-83
2022/10/31 03:11:28;;;;;;;9.27;3.72;;;;;;;13.93;53.00;94442.63;5064956;28;20063;-83
2022/10/31 03:14:08;;;;;;;6.93;3.53;;;;;;;13.94;53.22;94454.91;5064640;28;20316;-83
2022/10/31 03:16:51;;;;;;;6.82;3.35;;;;;;;13.90;53.17;94443.25;5064948;28;20418;-83
2022/10/31 03:19:25;;;;;;;11.35;3.58;;;;;;;13.88;53.58;94446.28;5064460;28;20029;-82
2022/10/31 03:21:56;;;;;;;10.68;5.03;;;;;;;13.83;53.59;94447.22;5064715;28;20311;-82
2022/10/31 03:24:27;;;;;;;8.93;3.50;;;;;;;13.82;53.75;94440.31;5064568;28;20040;-82
2022/10/31 03:26:57;;;;;;;8.00;3.53;;;;;;;13.83;53.56;94444.53;5064484;28;20025;-84
2022/10/31 03:29:27;;;;;;;7.95;3.95;;;;;;;13.84;53.72;94446.13;5064534;28;20029;-83
2022/10/31 03:31:58;;;;;;;7.65;3.50;;;;;;;13.82;53.71;94442.97;5064442;28;20134;-83
2022/10/31 03:34:25;;;;;;;9.85;3.58;;;;;;;13.78;54.00;94442.03;5064279;28;20045;-83
2022/10/31 03:36:54;;;;;;;7.53;3.88;;;;;;;13.72;53.60;94447.88;5063298;28;20095;-82
2022/10/31 03:39:22;;;;;;;12.30;4.18;;;;;;;13.72;53.74;94446.00;5064458;28;20127;-82
2022/10/31 03:42:12;;;;;;;10.00;3.60;;;;;;;13.72;53.98;94450.53;5064257;28;20250;-83
2022/10/31 03:44:42;;;;;;;5.53;3.03;;;;;;;13.68;54.10;94460.31;5063770;28;20041;-83
2022/10/31 03:47:08;;;;;;;12.13;3.33;;;;;;;13.71;53.70;94454.34;5064153;28;20029;-83
2022/10/31 03:49:34;;;;;;;7.65;3.03;;;;;;;13.73;54.01;94449.47;5064127;28;20043;-82
2022/10/31 03:52:11;;;;;;;7.25;3.20;;;;;;;13.73;53.83;94460.94;5064148;28;20021;-83
2022/10/31 03:54:42;;;;;;;10.52;3.25;;;;;;;13.74;54.10;94475.94;5063992;28;20021;-82
2022/10/31 03:57:18;;;;;;;9.98;4.30;;;;;;;13.74;54.24;94472.44;5063922;28;20077;-82
2022/10/31 04:00:00;;;;;;;8.15;3.83;;;;;;;13.72;54.63;94462.06;5064022;28;20028;-82
2022/10/31 04:02:30;;;;;;;11.57;4.50;;;;;;;13.71;55.02;94462.38;5063777;28;20029;-82
2022/10/31 04:04:57;;;;;;;11.88;4.38;;;;;;;13.64;55.30;94473.59;5063787;28;20146;-83
2022/10/31 04:07:27;;;;;;;10.02;3.75;;;;;;;13.60;55.62;94472.66;5063764;28;20029;-83
2022/10/31 04:09:53;;;;;;;8.68;4.20;;;;;;;13.61;55.59;94471.53;5063757;28;20021;-83
2022/10/31 04:12:20;;;;;;;14.07;5.18;;;;;;;13.62;55.67;94473.13;5063664;28;20097;-83
2022/10/31 04:14:48;;;;;;;9.50;4.65;;;;;;;13.64;55.53;94476.25;5063741;28;20021;-84
2022/10/31 04:17:17;;;;;;;12.52;4.10;;;;;;;13.65;55.74;94475.16;5063543;28;20031;-84
2022/10/31 04:19:42;;;;;;;13.48;4.47;;;;;;;13.66;55.53;94479.41;5063579;28;20246;-84
2022/10/31 04:22:08;;;;;;;12.25;4.65;;;;;;;13.67;55.71;94489.00;5063464;28;20090;-81
2022/10/31 04:24:34;;;;;;;14.38;4.93;;;;;;;13.73;55.75;94482.38;5063645;28;20315;-82
2022/10/31 04:26:59;;;;;;;9.38;4.28;;;;;;;13.75;55.66;94474.81;5063351;28;20255;-83
2022/10/31 04:29:25;;;;;;;14.93;4.80;;;;;;;13.79;55.92;94477.66;5063370;28;20070;-83
2022/10/31 04:31:50;;;;;;;16.73;5.03;;;;;;;13.82;55.83;94480.50;5063228;28;20021;-82
2022/10/31 04:34:15;;;;;;;11.20;4.38;;;;;;;13.88;55.84;94493.72;5063008;28;20118;-82
2022/10/31 04:36:41;;;;;;;9.82;4.45;;;;;;;13.93;55.87;94488.19;5063270;28;20016;-82
2022/10/31 04:39:06;;;;;;;12.82;4.93;;;;;;;13.96;55.78;94488.34;5063070;28;20052;-82
2022/10/31 04:41:32;;;;;;;13.02;5.18;;;;;;;14.02;55.28;94488.94;5063532;28;20219;-82
2022/10/31 04:43:57;;;;;;;12.60;4.38;;;;;;;14.04;55.21;94486.75;5063083;28;20021;-82
2022/10/31 04:46:23;;;;;;;9.20;4.47;;;;;;;14.04;55.46;94492.09;5063040;28;20100;-82
2022/10/31 04:48:48;;;;;;;11.02;4.63;;;;;;;14.03;55.98;94490.53;5063029;28;20020;-85
2022/10/31 04:51:14;;;;;;;10.07;4.50;;;;;;;14.00;55.97;94486.59;5062892;28;20099;-85
2022/10/31 04:53:39;;;;;;;11.15;4.50;;;;;;;14.03;56.06;94490.53;5062809;28;20032;-85
2022/10/31 04:56:05;;;;;;;13.93;5.63;;;;;;;14.03;55.87;94485.19;5063051;28;20017;-83
2022/10/31 04:58:30;;;;;;;10.65;4.63;;;;;;;14.03;55.90;94494.00;5062831;28;20021;-83
2022/10/31 05:00:56;;;;;;;18.35;5.30;;;;;;;14.05;55.95;94494.47;5062862;28;20025;-83
2022/10/31 05:03:22;;;;;;;17.05;5.28;;;;;;;14.04;55.76;94494.78;5062686;28;20070;-81
2022/10/31 05:05:47;;;;;;;10.27;4.75;;;;;;;14.02;55.69;94499.66;5062597;28;20035;-81
2022/10/31 05:08:14;;;;;;;12.23;4.43;;;;;;;14.03;56.01;94502.03;5061171;28;20025;-80
2022/10/31 05:10:40;;;;;;;18.80;5.25;;;;;;;14.01;56.01;94516.88;5061813;28;20032;-81
2022/10/31 05:13:05;;;;;;;12.52;4.45;;;;;;;13.99;55.98;94519.09;5062842;28;20029;-80
2022/10/31 05:15:32;;;;;;;14.25;4.72;;;;;;;14.02;56.35;94510.38;5062729;28;20020;-82
2022/10/31 05:17:57;;;;;;;13.30;5.20;;;;;;;14.01;56.55;94511.50;5062388;28;20096;-82
2022/10/31 05:20:28;;;;;;;17.50;4.95;;;;;;;13.96;55.97;94511.66;5061325;28;20028;-82
2022/10/31 05:22:55;;;;;;;24.15;5.63;;;;;;;13.91;56.11;94517.22;5062351;28;20047;-82
2022/10/31 05:25:23;;;;;;;17.38;4.72;;;;;;;13.82;55.93;94518.00;5062315;28;20028;-82
2022/10/31 05:27:51;;;;;;;10.50;4.63;;;;;;;13.74;56.45;94518.78;5062179;28;20035;-81
2022/10/31 05:30:19;;;;;;;8.20;4.38;;;;;;;13.71;56.72;94519.41;5062530;28;20268;-82
2022/10/31 05:32:47;;;;;;;13.57;4.68;;;;;;;13.70;56.99;94512.50;5062036;28;20044;-84
2022/10/31 05:35:19;;;;;;;17.25;5.82;;;;;;;13.72;56.74;94512.97;5062148;28;20025;-82
2022/10/31 05:37:44;;;;;;;13.32;5.45;;;;;;;13.76;56.94;94530.00;5062261;28;20024;-82
2022/10/31 05:40:12;;;;;;;23.45;7.50;;;;;;;13.75;57.17;94533.75;5062507;28;20021;-82
2022/10/31 05:42:41;;;;;;;15.10;6.30;;;;;;;13.75;57.51;94539.13;5062260;28;20084;-82
2022/10/31 05:45:13;;;;;;;19.25;7.70;;;;;;;13.82;57.36;94538.66;5062070;28;20021;-82
2022/10/31 05:47:39;;;;;;;11.57;6.18;;;;;;;13.79;57.38;94533.91;5062308;28;20025;-82
2022/10/31 05:50:06;;;;;;;21.30;6.70;;;;;;;13.79;57.16;94541.97;5062402;28;20386;-82
2022/10/31 05:52:32;;;;;;;16.45;6.78;;;;;;;13.74;56.85;94542.09;5062266;28;20380;-81
2022/10/31 05:54:57;;;;;;;16.80;6.97;;;;;;;13.68;57.05;94536.13;5062180;28;20059;-82
2022/10/31 05:57:23;;;;;;;17.52;7.60;;;;;;;13.68;57.34;94538.81;5062194;28;20079;-82
2022/10/31 05:59:48;;;;;;;19.92;6.78;;;;;;;13.65;57.27;94540.22;5062080;28;20032;-81
2022/10/31 06:02:14;;;;;;;22.75;6.65;;;;;;;13.66;57.70;94546.38;5062027;28;20033;-82
2022/10/31 06:04:39;;;;;;;23.02;7.72;;;;;;;13.67;57.87;94539.91;5062058;28;20281;-82
2022/10/31 06:07:04;;;;;;;18.77;7.68;;;;;;;13.72;57.73;94550.47;5062094;28;20079;-82
2022/10/31 06:09:30;;;;;;;22.40;7.20;;;;;;;13.78;57.56;94553.75;5062007;28;20108;-82
2022/10/31 06:11:55;;;;;;;15.88;6.80;;;;;;;13.80;57.54;94560.41;5062039;28;20029;-82
2022/10/31 06:14:21;;;;;;;26.10;8.27;;;;;;;13.83;56.95;94559.75;5061987;28;20044;-82
2022/10/31 06:16:46;;;;;;;22.38;8.10;;;;;;;13.81;56.15;94561.97;5062038;28;20020;-82
2022/10/31 06:19:14;;;;;;;18.17;8.07;;;;;;;13.82;56.15;94554.72;5061614;28;20021;-84
2022/10/31 06:21:39;;;;;;;20.17;8.73;;;;;;;13.81;56.35;94564.63;5063924;28;20021;-85
2022/10/31 06:24:05;;;;;;;19.58;7.07;;;;;;;13.87;56.40;94561.81;5065905;28;20060;-82
2022/10/31 06:26:30;;;;;;;21.05;8.55;;;;;;;13.93;56.27;94569.38;5065396;28;20025;-82
2022/10/31 06:28:56;;;;;;;25.02;9.27;;;;;;;14.03;56.28;94577.09;5065612;28;20074;-76
2022/10/31 06:31:21;;;;;;;15.95;8.35;;;;;;;14.05;56.37;94582.13;5065444;28;20021;-77
2022/10/31 06:33:47;;;;;;;23.90;9.15;;;;;;;14.10;56.56;94575.81;5065369;28;20037;-76
2022/10/31 06:36:12;;;;;;;29.90;10.02;;;;;;;14.13;56.67;94586.69;5065633;28;20048;-77
2022/10/31 06:38:37;;;;;;;34.53;10.80;;;;;;;14.22;55.92;94592.03;5065242;28;20020;-79
2022/10/31 06:41:04;;;;;;;28.05;10.25;;;;;;;14.26;55.76;94584.94;5065408;28;20020;-79
2022/10/31 06:43:30;;;;;;;21.98;9.93;;;;;;;14.31;55.84;94584.78;5065345;28;20016;-79
2022/10/31 06:45:56;;;;;;;31.05;10.02;;;;;;;14.36;55.42;94591.88;5064886;28;20086;-77
2022/10/31 06:48:22;;;;;;;27.30;8.95;;;;;;;14.34;55.30;94586.81;5064841;28;20020;-76
2022/10/31 06:50:47;;;;;;;68.93;14.32;;;;;;;14.39;55.50;94593.91;5065209;28;20091;-76
2022/10/31 06:53:14;;;;;;;62.97;11.45;;;;;;;14.42;55.24;94591.38;5064886;28;20017;-75
2022/10/31 06:55:40;;;;;;;20.08;9.38;;;;;;;14.45;55.19;94587.28;5064832;28;20207;-75
2022/10/31 06:58:05;;;;;;;25.20;11.70;;;;;;;14.48;55.29;94589.31;5065208;28;20017;-75
2022/10/31 07:00:31;;;;;;;27.05;10.65;;;;;;;14.52;55.00;94592.94;5063629;28;20043;-75
2022/10/31 07:02:58;;;;;;;22.42;10.70;;;;;;;14.60;55.11;94586.00;5064897;28;20311;-74
2022/10/31 07:05:24;;;;;;;24.90;11.38;;;;;;;14.71;55.15;94589.91;5064623;28;20115;-74
2022/10/31 07:08:11;;;;;;;29.20;10.88;;;;;;;14.78;54.91;94595.56;5064682;28;20024;-78
2022/10/31 07:10:38;;;;;;;28.38;10.38;;;;;;;14.85;54.98;94592.38;5064611;28;20254;-76
2022/10/31 07:13:06;;;;;;;22.77;10.68;;;;;;;14.89;54.55;94595.22;5064767;28;20039;-73
2022/10/31 07:15:37;;;;;;;28.08;11.27;;;;;;;14.86;54.28;94591.28;5064870;28;20029;-73
2022/10/31 07:18:04;;;;;;;31.25;9.40;;;;;;;14.92;53.81;94590.00;5064609;28;20025;-73
2022/10/31 07:20:30;;;;;;;29.77;9.55;;;;;;;14.93;53.89;94594.25;5064674;28;20025;-73
2022/10/31 07:22:56;;;;;;;26.83;9.95;;;;;;;14.91;53.98;94598.38;5064584;28;20075;-73
2022/10/31 07:25:22;;;;;;;26.30;10.00;;;;;;;14.78;54.34;94590.22;5062933;28;20029;-77
2022/10/31 07:27:47;;;;;;;29.02;10.13;;;;;;;14.85;54.09;94584.34;5063996;28;20021;-78
2022/10/31 07:30:14;;;;;;;21.45;9.43;;;;;;;14.84;54.39;94580.09;5062742;28;20303;-75
2022/10/31 07:32:45;;;;;;;27.70;11.13;;;;;;;14.80;54.64;94576.47;5063294;28;20021;-75
2022/10/31 07:35:18;;;;;;;30.05;10.75;;;;;;;14.81;54.75;94575.34;5064342;28;20021;-75
2022/10/31 07:37:44;;;;;;;30.77;11.00;;;;;;;14.88;54.72;94572.97;5064155;28;20025;-76
2022/10/31 07:40:10;;;;;;;21.48;10.60;;;;;;;14.89;54.64;94573.75;5064323;28;20092;-74
2022/10/31 07:42:37;;;;;;;23.20;11.45;;;;;;;15.01;54.34;94576.53;5064183;28;20025;-76
2022/10/31 07:45:04;;;;;;;22.88;11.68;;;;;;;15.04;54.75;94581.25;5064138;28;20146;-75
2022/10/31 07:47:29;;;;;;;29.63;11.57;;;;;;;15.17;54.98;94585.63;5063964;28;20234;-76
2022/10/31 07:49:54;;;;;;;28.60;11.73;;;;;;;15.15;53.92;94581.69;5063655;28;20378;-76
2022/10/31 07:52:20;;;;;;;51.75;11.60;;;;;;;15.20;54.33;94573.44;5062848;28;20062;-77
2022/10/31 07:54:45;;;;;;;21.80;11.02;;;;;;;15.28;54.10;94580.66;5063879;28;20151;-77
2022/10/31 07:57:11;;;;;;;23.80;10.75;;;;;;;15.21;53.94;94581.16;5063724;28;20091;-77
2022/10/31 07:59:36;;;;;;;34.63;11.65;;;;;;;15.29;53.91;94582.25;5063925;28;20234;-76
2022/10/31 08:02:01;;;;;;;28.95;10.27;;;;;;;15.33;54.06;94582.38;5063836;28;20256;-76
2022/10/31 08:04:27;;;;;;;22.88;11.50;;;;;;;15.47;53.57;94587.50;5062624;28;20118;-77
2022/10/31 08:06:52;;;;;;;18.95;10.35;;;;;;;15.63;53.40;94593.84;5061999;28;20176;-76
2022/10/31 08:09:18;;;;;;;29.30;13.23;;;;;;;15.72;52.54;94588.44;5061821;28;20024;-77
2022/10/31 08:11:43;;;;;;;27.58;11.27;;;;;;;15.75;52.40;94587.81;5061726;28;20219;-76
2022/10/31 08:14:08;;;;;;;21.80;10.25;;;;;;;15.76;52.18;94578.63;5061755;28;20027;-76
2022/10/31 08:16:34;;;;;;;26.50;12.15;;;;;;;15.84;52.28;94580.47;5062196;28;20013;-76
2022/10/31 08:18:59;;;;;;;26.02;10.27;;;;;;;15.93;51.72;94589.25;5062597;28;20028;-77
2022/10/31 08:21:25;;;;;;;19.48;9.55;;;;;;;15.98;51.93;94586.38;5063519;28;20017;-76
2022/10/31 08:23:50;;;;;;;34.45;11.60;;;;;;;16.08;51.29;94592.44;5063459;28;20021;-76
2022/10/31 08:26:15;;;;;;;27.38;9.45;;;;;;;16.17;51.28;94587.78;5063010;28;20031;-76
2022/10/31 08:28:41;;;;;;;21.08;9.32;;;;;;;16.24;51.07;94591.53;5063407;28;20016;-76
2022/10/31 08:31:06;;;;;;;24.42;9.20;;;;;;;16.30;50.92;94581.31;5063473;28;20244;-77
2022/10/31 08:33:32;;;;;;;17.02;9.40;;;;;;;16.37;50.68;94583.50;5063064;28;20045;-77
2022/10/31 08:36:00;;;;;;;19.13;9.15;;;;;;;16.41;50.75;94585.19;5063262;28;20013;-76
2022/10/31 08:38:26;;;;;;;19.40;8.52;;;;;;;16.54;50.50;94583.31;5063102;28;20029;-76
2022/10/31 08:40:51;;;;;;;19.50;10.18;;;;;;;16.58;50.19;94586.91;5062882;28;20021;-77
2022/10/31 08:43:17;;;;;;;24.80;11.82;;;;;;;16.61;50.11;94586.25;5063066;28;20021;-78
2022/10/31 08:45:44;;;;;;;25.10;10.55;;;;;;;16.67;49.99;94578.75;5062204;28;20021;-77
2022/10/31 08:48:13;;;;;;;23.80;10.60;;;;;;;16.76;50.49;94586.72;5062769;28;20310;-76
2022/10/31 08:50:38;;;;;;;22.80;11.15;;;;;;;16.90;49.99;94579.13;5063259;28;20021;-77
2022/10/31 08:53:07;;;;;;;23.35;11.02;;;;;;;16.99;49.32;94585.19;5063080;28;20021;-77
2022/10/31 08:55:37;;;;;;;29.02;9.45;;;;;;;17.02;49.27;94576.44;5063067;28;20335;-77
2022/10/31 08:58:04;;;;;;;21.60;9.18;;;;;;;17.07;49.06;94577.34;5063137;28;20387;-76
2022/10/31 09:00:31;;;;;;;24.70;9.20;;;;;;;17.10;49.20;94568.63;5062693;28;20031;-78
2022/10/31 09:02:58;;;;;;;20.10;9.05;;;;;;;17.17;49.20;94579.59;5062665;28;20094;-78
2022/10/31 09:05:23;;;;;;;27.25;10.10;;;;;;;17.28;48.88;94577.22;5062663;28;20021;-76
2022/10/31 09:07:49;;;;;;;20.90;8.20;;;;;;;17.41;48.68;94579.59;5062803;28;20055;-77
2022/10/31 09:10:14;;;;;;;21.77;8.70;;;;;;;17.51;48.67;94578.34;5062659;28;20025;-77
2022/10/31 09:12:41;;;;;;;20.50;8.75;;;;;;;17.58;47.99;94577.75;5062815;28;20044;-77
2022/10/31 09:15:07;;;;;;;15.95;7.60;;;;;;;17.57;48.00;94581.59;5062813;28;20067;-76
2022/10/31 09:17:32;;;;;;;27.33;8.90;;;;;;;17.63;47.82;94567.53;5062751;28;20032;-77
2022/10/31 09:19:58;;;;;;;19.25;8.15;;;;;;;17.74;47.87;94570.53;5062592;28;20021;-77
2022/10/31 09:22:23;;;;;;;26.52;7.78;;;;;;;17.84;47.88;94558.53;5062614;28;20021;-76
2022/10/31 09:24:48;;;;;;;23.48;8.18;;;;;;;17.92;47.31;94564.91;5062557;28;20029;-76
2022/10/31 09:27:14;;;;;;;14.00;7.15;;;;;;;17.99;47.32;94568.59;5062376;28;20056;-77
2022/10/31 09:29:39;;;;;;;19.95;6.90;;;;;;;18.03;47.19;94565.97;5062713;28;20299;-76
2022/10/31 09:32:04;;;;;;;19.92;8.63;;;;;;;18.14;47.38;94560.91;5062553;28;20029;-77
2022/10/31 09:34:30;;;;;;;20.02;7.35;;;;;;;18.22;47.05;94558.06;5062425;28;20397;-76
2022/10/31 09:36:55;;;;;;;16.92;5.88;;;;;;;18.38;45.94;94562.72;5062606;28;20021;-77
2022/10/31 09:39:21;;;;;;;17.20;6.47;;;;;;;18.42;46.28;94563.59;5062565;28;20016;-77
2022/10/31 09:41:52;;;;;;;18.33;6.53;;;;;;;18.53;46.21;94561.94;5062295;28;20021;-78
2022/10/31 09:44:33;;;;;;;19.23;6.45;;;;;;;18.68;46.34;94565.00;5062614;28;20024;-78
2022/10/31 09:47:08;;;;;;;26.17;6.53;;;;;;;18.84;45.30;94565.81;5062444;28;20067;-78
2022/10/31 09:50:01;;;;;;;21.75;6.80;;;;;;;18.83;45.18;94562.34;5062413;28;20025;-78
2022/10/31 09:52:31;;;;;;;11.60;5.63;;;;;;;18.85;45.17;94559.31;5061533;28;20025;-78
2022/10/31 09:55:17;;;;;;;18.85;6.03;;;;;;;18.99;44.98;94567.75;5062325;28;20028;-78
2022/10/31 09:57:45;;;;;;;20.90;5.57;;;;;;;19.10;44.28;94559.91;5066293;28;20032;-79
2022/10/31 10:00:17;;;;;;;16.10;5.63;;;;;;;19.20;44.13;94561.28;5066026;28;20329;-77
2022/10/31 10:03:16;;;;;;;12.10;5.75;;;;;;;19.35;44.03;94557.78;5065971;28;20029;-76
2022/10/31 10:06:06;;;;;;;18.10;5.47;;;;;;;19.48;42.95;94555.75;5066085;28;20044;-77
2022/10/31 10:08:34;;;;;;;16.48;4.55;;;;;;;19.60;42.99;94549.41;5065995;28;20027;-76
2022/10/31 10:11:31;;;;;;;22.17;5.30;;;;;;;19.67;42.51;94546.88;5066067;28;20016;-76
2022/10/31 10:14:12;;;;;;;12.20;3.95;;;;;;;19.76;42.27;94544.81;5065822;28;20025;-76
2022/10/31 10:16:47;;;;;;;15.48;3.28;;;;;;;19.83;40.72;94544.94;5065747;28;20025;-76
2022/10/31 10:19:27;;;;;;;9.95;3.80;;;;;;;19.88;40.83;94534.97;5066001;28;20020;-76
2022/10/31 10:22:20;;;;;;;7.43;3.10;;;;;;;19.90;40.38;94536.19;5065908;28;20254;-76
2022/10/31 10:25:14;;;;;;;6.38;2.47;;;;;;;19.89;39.76;94541.97;5065567;28;20230;-75
2022/10/31 10:28:06;;;;;;;6.38;2.85;;;;;;;19.96;40.38;94531.28;5065582;28;20033;-77
2022/10/31 10:31:14;;;;;;;10.52;3.28;;;;;;;20.12;40.83;94529.28;5065853;28;20025;-77
2022/10/31 10:33:58;;;;;;;18.33;2.80;;;;;;;20.20;38.98;94530.97;5065078;28;20049;-77
2022/10/31 10:36:40;;;;;;;12.25;2.60;;;;;;;20.33;38.60;94522.69;5065631;28;20021;-77
2022/10/31 10:39:17;;;;;;;11.55;2.88;;;;;;;20.39;38.83;94513.13;5065537;28;20075;-77
2022/10/31 10:43:18;;;;;;;10.25;3.08;;;;;;;20.46;38.58;94512.50;5065459;28;20111;-77
2022/10/31 10:47:42;;;;;;;11.73;2.70;;;;;;;20.58;39.30;94507.72;5065195;28;20029;-79
2022/10/31 10:50:26;;;;;;;9.40;2.53;;;;;;;20.72;37.80;94492.84;5065385;28;20033;-78
2022/10/31 10:53:04;;;;;;;11.85;2.92;;;;;;;20.87;37.41;94502.00;5065200;28;20340;-78
2022/10/31 10:55:41;;;;;;;7.05;2.53;;;;;;;20.95;36.81;94504.44;5065265;28;20024;-78
2022/10/31 10:58:08;;;;;;;8.80;2.78;;;;;;;21.04;37.89;94499.56;5065042;28;20036;-78
2022/10/31 11:00:38;;;;;;;12.15;3.05;;;;;;;21.13;37.80;94499.31;5065198;28;20052;-79
2022/10/31 11:03:04;;;;;;;9.10;2.50;;;;;;;21.30;35.92;94511.53;5065431;28;20040;-80
2022/10/31 11:06:01;;;;;;;9.05;2.53;;;;;;;21.25;35.89;94503.75;5064947;28;20035;-78
2022/10/31 11:08:28;;;;;;;7.25;2.20;;;;;;;21.26;35.92;94494.44;5050618;28;20056;-79
2022/10/31 11:11:04;;;;;;;7.93;3.28;;;;;;;21.30;36.36;94497.22;5064679;28;20017;-78
2022/10/31 11:13:31;;;;;;;8.38;2.22;;;;;;;21.32;35.79;94492.97;5064698;28;20190;-80
2022/10/31 11:16:10;;;;;;;8.85;2.05;;;;;;;21.43;35.26;94493.97;5064571;28;20021;-79
2022/10/31 11:18:46;;;;;;;12.60;2.92;;;;;;;21.50;35.33;94493.25;5064528;28;20157;-79
2022/10/31 11:21:26;;;;;;;20.67;4.53;;;;;;;21.53;35.31;94489.81;5064533;28;20044;-76
2022/10/31 11:24:26;;;;;;;9.70;2.33;;;;;;;21.51;35.78;94480.47;5064648;28;20345;-76
2022/10/31 11:27:02;;;;;;;9.52;2.95;;;;;;;21.55;35.81;94482.06;5056863;28;20041;-77
2022/10/31 11:29:28;;;;;;;7.57;2.55;;;;;;;21.55;36.02;94484.78;5064621;28;20096;-79
2022/10/31 11:31:56;;;;;;;19.55;3.17;;;;;;;21.73;36.12;94481.53;5064648;28;20056;-78
2022/10/31 11:34:35;;;;;;;10.73;2.50;;;;;;;21.82;34.49;94480.09;5064302;28;20048;-79
2022/10/31 11:37:17;;;;;;;7.22;2.90;;;;;;;21.79;35.06;94472.69;5064548;28;20017;-78
2022/10/31 11:39:55;;;;;;;7.78;2.45;;;;;;;21.84;34.87;94475.09;5064439;28;20021;-78
2022/10/31 11:42:27;;;;;;;7.75;3.45;;;;;;;21.80;35.37;94474.28;5064352;28;20021;-78